Time;durP1;ratioP1;P1;durP2;ratioP2;P2;SDS_P1;SDS_P2;PMS_P1;PMS_P2;Temp;Humidity;BMP_temperature;BMP_pressure;BME280_temperature;BME280_humidity;BME280_pressure;Samples;Min_cycle;Max_cycle;Signal;HPM_P1;HPM_P2
2023/09/05 00:03:03;;;;;;;5.50;3.38;;;15.20;82.90;;;;;;4937150;28;20240;-91
2023/09/05 00:05:32;;;;;;;3.70;2.97;;;15.20;85.60;;;;;;4968826;28;20708;-91
2023/09/05 00:07:59;;;;;;;4.88;3.72;;;15.20;84.80;;;;;;4962555;28;20213;-91
2023/09/05 00:10:26;;;;;;;3.60;3.30;;;15.20;85.10;;;;;;4962762;28;20211;-92
2023/09/05 00:12:53;;;;;;;3.45;3.03;;;15.20;86.20;;;;;;4967613;28;20209;-91
2023/09/05 00:18:02;;;;;;;3.88;3.17;;;15.10;84.70;;;;;;4955165;28;20568;-91
2023/09/05 00:20:29;;;;;;;5.03;3.20;;;15.10;84.80;;;;;;4960990;28;20212;-92
2023/09/05 00:22:57;;;;;;;7.50;3.33;;;15.10;85.30;;;;;;4971548;28;20201;-91
2023/09/05 00:25:24;;;;;;;4.38;3.00;;;15.00;86.30;;;;;;4968709;28;20319;-90
2023/09/05 00:27:51;;;;;;;3.85;3.03;;;15.00;86.40;;;;;;4975655;28;20208;-91
2023/09/05 00:30:22;;;;;;;4.88;3.30;;;15.00;87.90;;;;;;4966744;28;20196;-91
2023/09/05 00:35:35;;;;;;;4.38;3.42;;;15.00;88.60;;;;;;4973062;28;20216;-91
2023/09/05 00:38:04;;;;;;;3.13;2.83;;;15.00;88.30;;;;;;4965210;28;20205;-91
2023/09/05 00:40:50;;;;;;;3.83;3.28;;;15.00;87.40;;;;;;4959017;28;20200;-91
2023/09/05 00:43:20;;;;;;;4.05;3.00;;;15.00;88.50;;;;;;4970843;28;20231;-91
2023/09/05 00:51:13;;;;;;;4.53;3.28;;;14.90;89.40;;;;;;4957840;28;20256;-91
2023/09/05 00:53:41;;;;;;;5.03;3.13;;;15.00;89.20;;;;;;4972790;28;20201;-91
2023/09/05 00:56:07;;;;;;;5.88;3.10;;;15.00;89.40;;;;;;4947007;28;20228;-91
2023/09/05 00:58:36;;;;;;;3.45;3.15;;;15.00;90.10;;;;;;4964422;28;20654;-92
2023/09/05 01:01:04;;;;;;;3.92;3.20;;;14.90;89.50;;;;;;4964543;28;20654;-91
2023/09/05 01:11:54;;;;;;;4.03;2.97;;;14.80;90.60;;;;;;4971425;28;20284;-92
2023/09/05 01:14:41;;;;;;;5.72;2.88;;;14.80;91.00;;;;;;4967723;28;20209;-91
2023/09/05 01:17:08;;;;;;;3.40;3.10;;;14.80;90.90;;;;;;4964989;28;20259;-92
2023/09/05 01:23:01;;;;;;;4.68;2.97;;;14.70;90.90;;;;;;4930363;28;20287;-91
2023/09/05 01:28:44;;;;;;;5.72;3.53;;;14.70;91.40;;;;;;4950786;28;20211;-91
2023/09/05 01:31:29;;;;;;;3.22;2.80;;;14.80;91.40;;;;;;4958335;28;20581;-91
2023/09/05 01:34:18;;;;;;;4.10;3.38;;;14.80;91.40;;;;;;4956819;28;20216;-92
2023/09/05 01:37:14;;;;;;;4.72;3.20;;;14.80;91.70;;;;;;4969852;28;20208;-91
2023/09/05 01:42:23;;;;;;;5.35;3.38;;;14.60;91.60;;;;;;4939755;28;21781;-91
2023/09/05 01:44:50;;;;;;;4.97;3.30;;;14.60;91.40;;;;;;4969049;28;20224;-91
2023/09/05 01:49:59;;;;;;;4.65;3.28;;;14.40;91.90;;;;;;4969515;28;20200;-91
2023/09/05 01:52:26;;;;;;;3.58;3.28;;;14.40;92.50;;;;;;4968522;28;20720;-91
2023/09/05 01:54:53;;;;;;;3.78;3.40;;;14.40;93.10;;;;;;4970487;28;20197;-91
2023/09/05 01:57:20;;;;;;;4.30;3.15;;;14.30;93.10;;;;;;4966159;28;20209;-91
2023/09/05 01:59:49;;;;;;;3.92;3.33;;;14.20;93.20;;;;;;4960048;28;20213;-90
2023/09/05 02:02:17;;;;;;;4.75;3.33;;;14.20;93.70;;;;;;4952802;28;20208;-92
2023/09/05 02:04:44;;;;;;;6.35;3.45;;;14.20;93.60;;;;;;4971838;28;20230;-91
2023/09/05 02:07:11;;;;;;;4.85;3.55;;;14.10;94.00;;;;;;4966413;28;20244;-91
2023/09/05 02:09:38;;;;;;;3.70;3.30;;;14.00;94.30;;;;;;4954575;28;20263;-91
2023/09/05 02:12:05;;;;;;;4.70;3.42;;;13.90;94.50;;;;;;4971914;28;20549;-91
2023/09/05 02:14:35;;;;;;;3.95;3.33;;;13.80;95.30;;;;;;4969007;28;20885;-91
2023/09/05 02:20:03;;;;;;;5.65;3.17;;;13.70;95.10;;;;;;4955875;28;20204;-91
2023/09/05 02:22:30;;;;;;;4.03;3.20;;;13.60;95.10;;;;;;4966227;28;20228;-91
2023/09/05 02:27:40;;;;;;;6.78;3.42;;;13.50;96.20;;;;;;4937350;28;20221;-91
2023/09/05 02:30:08;;;;;;;4.40;3.25;;;13.40;96.20;;;;;;4956506;28;20211;-91
2023/09/05 02:35:20;;;;;;;4.85;3.60;;;13.30;96.50;;;;;;4972438;28;20733;-90
2023/09/05 02:37:47;;;;;;;4.35;3.63;;;13.30;96.50;;;;;;4967299;28;20581;-91
2023/09/05 02:40:14;;;;;;;4.30;3.42;;;13.30;96.50;;;;;;4959348;28;20208;-90
2023/09/05 02:42:41;;;;;;;4.05;3.20;;;13.20;96.50;;;;;;4968659;28;20197;-91
2023/09/05 02:47:51;;;;;;;4.28;3.60;;;13.30;97.00;;;;;;4957178;28;20208;-91
2023/09/05 02:50:19;;;;;;;4.32;3.65;;;13.20;97.00;;;;;;4974317;28;20205;-90
2023/09/05 02:52:47;;;;;;;4.20;3.60;;;13.30;97.30;;;;;;4970461;28;20201;-91
2023/09/05 02:55:35;;;;;;;6.15;4.00;;;13.20;97.40;;;;;;4953572;28;20216;-92
2023/09/05 02:58:03;;;;;;;5.25;3.50;;;13.20;97.80;;;;;;4973784;28;20260;-91
2023/09/05 03:00:31;;;;;;;4.93;3.72;;;13.20;97.90;;;;;;4972376;28;20701;-90
2023/09/05 03:03:04;;;;;;;4.20;3.70;;;13.20;98.00;;;;;;4972537;28;20279;-90
2023/09/05 03:08:34;;;;;;;4.28;3.60;;;13.10;98.50;;;;;;4975550;28;20274;-91
2023/09/05 03:11:01;;;;;;;7.15;3.80;;;13.10;98.60;;;;;;4972880;28;20194;-91
2023/09/05 03:13:28;;;;;;;3.85;3.35;;;13.10;98.50;;;;;;4976512;28;20208;-91
2023/09/05 03:15:55;;;;;;;4.85;3.53;;;13.10;98.80;;;;;;4974497;28;20201;-91
2023/09/05 03:21:05;;;;;;;3.97;3.42;;;12.90;99.10;;;;;;4965556;28;20686;-91
2023/09/05 03:23:32;;;;;;;6.18;4.03;;;12.90;99.30;;;;;;4975724;28;20661;-91
2023/09/05 03:25:59;;;;;;;5.18;3.90;;;13.00;99.40;;;;;;4975318;28;20224;-91
2023/09/05 03:28:38;;;;;;;4.57;3.67;;;12.90;99.50;;;;;;4968579;28;20217;-91
2023/09/05 03:31:07;;;;;;;5.55;3.65;;;12.90;99.70;;;;;;4958502;28;20201;-91
2023/09/05 03:33:37;;;;;;;6.25;3.83;;;12.90;99.90;;;;;;4954932;28;20206;-91
2023/09/05 03:36:25;;;;;;;4.53;3.83;;;12.90;99.90;;;;;;4961829;28;20260;-90
2023/09/05 03:38:52;;;;;;;4.63;4.05;;;12.90;99.90;;;;;;4975458;28;20200;-91
2023/09/05 03:41:19;;;;;;;4.22;3.83;;;12.90;99.90;;;;;;4972941;28;20211;-92
2023/09/05 03:43:46;;;;;;;5.15;3.70;;;12.90;99.90;;;;;;4973736;28;20534;-92
2023/09/05 03:46:13;;;;;;;4.20;3.67;;;13.00;99.90;;;;;;4974231;28;20543;-90
2023/09/05 03:51:23;;;;;;;7.00;4.10;;;13.10;99.90;;;;;;4968451;28;20309;-91
2023/09/05 03:53:51;;;;;;;5.40;4.07;;;13.00;99.90;;;;;;4972907;28;20204;-90
2023/09/05 03:56:18;;;;;;;4.93;3.80;;;13.00;99.90;;;;;;4974510;28;20205;-91
2023/09/05 03:58:45;;;;;;;5.07;3.97;;;13.10;99.90;;;;;;4974611;28;20208;-91
2023/09/05 04:01:14;;;;;;;6.55;3.78;;;13.10;99.90;;;;;;4969820;28;20204;-91
2023/09/05 04:03:42;;;;;;;5.43;3.92;;;13.10;99.90;;;;;;4969320;28;20200;-91
2023/09/05 04:06:11;;;;;;;4.65;3.70;;;13.20;99.90;;;;;;4972539;28;20221;-91
2023/09/05 04:08:38;;;;;;;4.07;3.63;;;13.20;99.70;;;;;;4968457;28;20213;-91
2023/09/05 04:11:04;;;;;;;4.38;3.75;;;13.30;99.50;;;;;;4965754;28;20209;-90
2023/09/05 04:13:32;;;;;;;5.13;3.70;;;13.30;99.30;;;;;;4965404;28;20201;-91
2023/09/05 04:18:46;;;;;;;4.07;3.30;;;13.30;99.10;;;;;;4971113;28;20201;-91
2023/09/05 04:21:13;;;;;;;5.55;3.55;;;13.30;99.20;;;;;;4974252;28;20206;-89
2023/09/05 04:23:40;;;;;;;4.50;3.75;;;13.40;99.20;;;;;;4968754;28;20201;-91
2023/09/05 04:26:07;;;;;;;4.55;3.80;;;13.40;98.90;;;;;;4974858;28;20721;-91
2023/09/05 04:28:36;;;;;;;5.13;3.95;;;13.40;99.10;;;;;;4965001;28;20570;-92
2023/09/05 04:31:05;;;;;;;5.05;4.15;;;13.30;99.10;;;;;;4970194;28;20201;-91
2023/09/05 04:33:39;;;;;;;4.45;4.00;;;13.20;99.20;;;;;;4971711;28;20548;-91
2023/09/05 04:38:54;;;;;;;5.57;4.20;;;13.20;99.80;;;;;;4967065;28;20220;-91
2023/09/05 04:41:21;;;;;;;5.03;3.72;;;13.40;99.30;;;;;;4963602;28;20205;-91
2023/09/05 04:43:48;;;;;;;5.38;3.65;;;13.40;98.80;;;;;;4950866;28;20201;-91
2023/09/05 04:49:10;;;;;;;5.35;4.13;;;13.20;99.40;;;;;;4941838;28;20571;-92
2023/09/05 04:51:58;;;;;;;4.18;3.75;;;13.10;99.80;;;;;;4973048;28;20308;-91
2023/09/05 04:54:25;;;;;;;7.53;4.35;;;13.00;99.90;;;;;;4970920;28;20200;-90
2023/09/05 04:56:52;;;;;;;4.43;3.70;;;12.90;99.90;;;;;;4970765;28;20201;-91
2023/09/05 04:59:18;;;;;;;5.45;4.10;;;12.80;99.90;;;;;;4964111;28;20213;-91
2023/09/05 05:01:45;;;;;;;7.93;4.07;;;12.80;99.90;;;;;;4955449;28;20666;-92
2023/09/05 05:04:12;;;;;;;5.57;4.07;;;12.80;99.90;;;;;;4966928;28;20232;-91
2023/09/05 05:06:39;;;;;;;5.03;4.00;;;12.70;99.90;;;;;;4970348;28;20782;-91
2023/09/05 05:12:09;;;;;;;6.00;4.18;;;12.70;99.90;;;;;;4957012;28;20254;-91
2023/09/05 05:14:38;;;;;;;5.57;4.40;;;12.70;99.90;;;;;;4968582;28;20200;-92
2023/09/05 05:17:06;;;;;;;6.80;4.55;;;12.70;99.90;;;;;;4970020;28;20197;-91
2023/09/05 05:19:33;;;;;;;4.78;4.28;;;12.70;99.90;;;;;;4966388;28;20263;-91
2023/09/05 05:22:00;;;;;;;5.88;4.25;;;12.70;99.90;;;;;;4969063;28;20628;-91
2023/09/05 05:24:28;;;;;;;5.20;4.15;;;12.80;99.90;;;;;;4970844;28;20268;-91
2023/09/05 05:26:56;;;;;;;5.63;4.40;;;12.80;99.90;;;;;;4964717;28;20588;-91
2023/09/05 05:29:22;;;;;;;6.05;4.07;;;12.90;99.90;;;;;;4964647;28;20208;-92
2023/09/05 05:31:50;;;;;;;4.97;4.47;;;12.90;99.90;;;;;;4961983;28;20201;-92
2023/09/05 05:34:18;;;;;;;6.65;4.47;;;12.90;99.90;;;;;;4960689;28;20203;-94
2023/09/05 05:42:09;;;;;;;5.43;3.85;;;13.20;99.90;;;;;;4941371;28;20291;-89
2023/09/05 05:45:01;;;;;;;4.90;4.30;;;13.40;99.90;;;;;;4957024;28;20540;-90
2023/09/05 05:47:31;;;;;;;4.22;3.83;;;13.40;99.90;;;;;;4957138;28;20195;-91
2023/09/05 05:49:58;;;;;;;5.38;4.25;;;13.50;99.90;;;;;;4970424;28;20286;-89
2023/09/05 05:52:25;;;;;;;7.75;4.35;;;13.50;99.90;;;;;;4974207;28;20229;-89
2023/09/05 05:54:53;;;;;;;5.50;3.92;;;13.60;99.90;;;;;;4975030;28;20196;-89
2023/09/05 05:57:21;;;;;;;6.85;4.20;;;13.70;99.90;;;;;;4968071;28;20201;-89
2023/09/05 06:03:16;;;;;;;8.13;4.20;;;13.90;99.90;;;;;;4975231;28;20279;-89
2023/09/05 06:05:43;;;;;;;5.22;3.80;;;14.00;99.60;;;;;;4972104;28;20228;-88
2023/09/05 06:08:10;;;;;;;5.30;3.88;;;14.10;98.80;;;;;;4961388;28;20197;-89
2023/09/05 06:10:38;;;;;;;5.13;3.60;;;14.20;98.00;;;;;;4975287;28;20207;-89
2023/09/05 06:13:05;;;;;;;5.97;3.70;;;14.30;97.80;;;;;;4981441;28;20201;-89
2023/09/05 06:15:33;;;;;;;6.97;3.92;;;14.50;96.90;;;;;;4975743;28;20283;-89
2023/09/05 06:18:00;;;;;;;5.80;3.80;;;14.50;97.00;;;;;;4972573;28;20255;-89
2023/09/05 06:20:28;;;;;;;5.63;4.07;;;14.70;96.80;;;;;;4970265;28;20284;-90
2023/09/05 06:22:55;;;;;;;4.80;3.80;;;14.80;96.80;;;;;;4973862;28;20206;-89
2023/09/05 06:25:23;;;;;;;4.65;3.90;;;14.80;96.80;;;;;;4972303;28;20220;-89
2023/09/05 06:27:51;;;;;;;5.82;3.75;;;14.90;96.50;;;;;;4973173;28;20201;-89
2023/09/05 06:30:18;;;;;;;4.35;3.50;;;14.90;96.50;;;;;;4970716;28;20200;-92
2023/09/05 06:32:45;;;;;;;7.95;3.85;;;15.00;96.20;;;;;;4972411;28;20201;-89
2023/09/05 06:35:12;;;;;;;5.80;3.63;;;15.30;95.00;;;;;;4972574;28;20201;-89
2023/09/05 06:37:39;;;;;;;5.78;3.63;;;15.30;94.50;;;;;;4972476;28;20212;-89
2023/09/05 06:40:09;;;;;;;4.30;3.33;;;15.40;94.00;;;;;;4962921;28;20531;-90
2023/09/05 06:42:37;;;;;;;5.25;3.38;;;15.40;94.00;;;;;;4967275;28;20259;-89
2023/09/05 06:45:07;;;;;;;5.10;3.47;;;15.40;94.10;;;;;;4975311;28;20224;-91
2023/09/05 06:47:34;;;;;;;4.07;3.47;;;15.40;94.20;;;;;;4974276;28;20217;-90
2023/09/05 06:50:01;;;;;;;4.65;3.25;;;15.60;93.50;;;;;;4968424;28;20228;-88
2023/09/05 06:52:27;;;;;;;3.53;3.22;;;15.60;93.30;;;;;;4975967;28;20228;-92
2023/09/05 06:54:54;;;;;;;3.95;3.13;;;15.70;93.10;;;;;;4972469;28;20197;-92
2023/09/05 06:57:21;;;;;;;8.88;3.45;;;15.80;92.80;;;;;;4990720;28;20646;-94
2023/09/05 06:59:51;;;;;;;4.88;3.35;;;15.90;92.60;;;;;;4961057;28;20665;-89
2023/09/05 07:02:19;;;;;;;5.28;3.85;;;15.90;92.50;;;;;;4971108;28;20263;-90
2023/09/05 07:04:46;;;;;;;4.47;3.22;;;16.00;92.60;;;;;;4969508;28;20204;-92
2023/09/05 07:07:13;;;;;;;7.32;3.47;;;16.10;91.70;;;;;;4969471;28;20206;-92
2023/09/05 07:09:40;;;;;;;4.20;3.40;;;16.10;91.70;;;;;;4966094;28;20602;-91
2023/09/05 07:12:08;;;;;;;3.92;3.20;;;16.30;91.80;;;;;;4950673;28;20588;-91
2023/09/05 07:14:35;;;;;;;4.53;3.60;;;16.40;91.30;;;;;;4970201;28;20208;-91
2023/09/05 07:17:01;;;;;;;4.22;3.00;;;16.40;90.60;;;;;;4974972;28;20296;-90
2023/09/05 07:19:30;;;;;;;4.10;3.70;;;16.50;90.40;;;;;;4971547;28;20207;-90
2023/09/05 07:21:57;;;;;;;3.60;2.92;;;16.60;90.40;;;;;;4973411;28;20214;-90
2023/09/05 07:24:24;;;;;;;4.30;3.35;;;16.60;89.50;;;;;;4981370;28;20214;-93
2023/09/05 07:26:51;;;;;;;3.35;3.05;;;16.70;89.30;;;;;;4979886;28;20216;-94
2023/09/05 07:32:50;;;;;;;3.83;3.05;;;16.90;88.20;;;;;;4982259;28;20203;-93
2023/09/05 07:38:53;;;;;;;3.60;3.20;;;17.10;87.20;;;;;;4984807;28;20216;-93
2023/09/05 07:41:26;;;;;;;5.50;3.03;;;17.10;86.40;;;;;;4983500;28;20215;-93
2023/09/05 07:43:53;;;;;;;4.32;2.83;;;17.20;83.30;;;;;;4985040;28;20206;-94
2023/09/05 07:46:20;;;;;;;5.75;3.17;;;17.30;83.00;;;;;;4973042;28;20299;-94
2023/09/05 07:48:47;;;;;;;4.85;3.35;;;17.40;82.40;;;;;;5046244;23;20185;-90
2023/09/05 08:04:17;;;;;;;3.88;2.90;;;18.00;78.50;;;;;;4995739;28;20208;-93
2023/09/05 09:21:47;;;;;;;2.90;2.70;;;29.40;11.70;;;;;;4973513;28;20637;-90
2023/09/05 09:24:40;;;;;;;4.78;3.20;;;29.90;9.80;;;;;;4941352;29;20606;-90
2023/09/05 09:27:46;;;;;;;3.92;3.50;;;29.90;8.20;;;;;;4936004;29;20231;-91
2023/09/05 09:36:28;;;;;;;4.00;3.63;;;30.20;8.60;;;;;;4957182;29;20209;-93
2023/09/05 09:42:38;;;;;;;3.50;3.20;;;32.00;5.90;;;;;;5001204;28;20528;-94
2023/09/05 09:58:22;;;;;;;5.80;3.20;;;30.40;9.00;;;;;;4940050;29;20224;-93
2023/09/05 10:38:43;;;;;;;3.20;2.90;;;29.90;8.20;;;;;;4878055;29;20267;-90
2023/09/05 10:41:37;;;;;;;6.22;5.72;;;29.70;8.20;;;;;;4904428;28;20194;-92
2023/09/05 10:49:46;;;;;;;5.85;3.85;;;29.50;9.40;;;;;;4963303;28;20208;-91
2023/09/05 10:55:21;;;;;;;3.63;3.33;;;29.60;9.40;;;;;;4939248;29;20201;-91
2023/09/05 10:57:50;;;;;;;4.20;3.30;;;29.40;9.80;;;;;;4947560;29;20209;-90
2023/09/05 11:00:38;;;;;;;3.42;3.13;;;28.60;13.00;;;;;;4947758;29;20203;-93
2023/09/05 11:03:17;;;;;;;2.95;2.65;;;28.00;13.50;;;;;;4948503;29;20543;-91
2023/09/05 11:06:16;;;;;;;3.38;2.40;;;28.40;11.70;;;;;;4944734;29;20232;-91
2023/09/05 11:08:45;;;;;;;2.70;2.33;;;28.10;11.30;;;;;;4948117;29;20205;-91
2023/09/05 11:11:23;;;;;;;4.15;2.63;;;27.80;11.70;;;;;;4951222;29;20212;-90
2023/09/05 11:13:51;;;;;;;3.53;2.40;;;27.30;15.30;;;;;;4948382;29;20807;-88
2023/09/05 11:16:20;;;;;;;2.53;2.30;;;26.80;14.80;;;;;;4947915;28;20207;-88
2023/09/05 11:18:54;;;;;;;2.90;2.40;;;26.50;14.10;;;;;;4948375;29;20208;-86
2023/09/05 11:21:24;;;;;;;5.22;2.47;;;26.30;14.70;;;;;;4950296;29;20194;-91
2023/09/05 11:26:54;;;;;;;4.18;2.60;;;25.90;16.30;;;;;;4944913;28;20225;-91
2023/09/05 11:29:22;;;;;;;4.05;2.65;;;25.80;14.60;;;;;;4950497;29;20528;-89
2023/09/05 11:31:49;;;;;;;2.75;2.50;;;25.70;15.80;;;;;;4945670;29;20204;-91
2023/09/05 11:34:25;;;;;;;3.22;2.60;;;25.60;14.50;;;;;;4958037;29;20288;-93
2023/09/05 11:37:17;;;;;;;2.70;2.45;;;25.40;15.50;;;;;;4958300;29;20398;-92
2023/09/05 11:39:49;;;;;;;3.03;2.60;;;25.30;14.30;;;;;;4953348;29;20220;-90
2023/09/05 11:50:58;;;;;;;3.08;2.63;;;25.40;14.40;;;;;;4901051;28;20278;-94
2023/09/05 11:53:29;;;;;;;2.80;2.50;;;25.50;14.40;;;;;;4957014;29;20248;-93
2023/09/05 11:58:58;;;;;;;3.00;2.70;;;25.30;15.10;;;;;;4966525;28;20196;-94
2023/09/05 12:01:29;;;;;;;3.10;2.70;;;25.20;14.30;;;;;;5070626;23;20235;-91
2023/09/05 12:06:42;;;;;;;13.43;8.88;;;25.10;14.20;;;;;;4987145;28;20227;-92
2023/09/05 12:11:53;;;;;;;2.60;2.30;;;25.00;13.10;;;;;;4975422;28;20346;-96
2023/09/05 12:17:43;;;;;;;4.32;2.75;;;24.90;14.10;;;;;;4975285;28;20208;-96
2023/09/05 12:23:08;;;;;;;4.90;3.72;;;24.90;14.10;;;;;;4933965;28;20240;-94
2023/09/05 12:25:35;;;;;;;3.10;2.80;;;25.00;14.20;;;;;;4991821;28;20195;-95
2023/09/05 12:41:13;;;;;;;22.02;19.77;;;24.90;15.70;;;;;;5030832;23;20228;-92
2023/09/05 12:46:35;;;;;;;4.65;3.58;;;24.80;16.60;;;;;;5420175;23;20215;-93
2023/09/05 13:04:42;;;;;;;3.88;3.40;;;24.60;14.00;;;;;;5497602;23;20219;-94
2023/09/05 13:12:25;;;;;;;3.10;2.80;;;24.70;15.10;;;;;;4967126;28;20286;-93
2023/09/05 13:14:52;;;;;;;5.85;3.10;;;24.70;15.90;;;;;;4971651;28;20203;-93
2023/09/05 13:17:19;;;;;;;24.63;22.10;;;24.70;14.00;;;;;;4972071;28;20225;-93
2023/09/05 13:43:23;;;;;;;3.83;3.42;;;24.70;14.00;;;;;;5755832;23;20244;-93
2023/09/05 13:45:49;;;;;;;4.90;3.10;;;24.70;14.00;;;;;;5490317;23;20236;-94
2023/09/05 13:48:16;;;;;;;3.53;3.10;;;24.70;15.20;;;;;;5234097;23;20241;-94
2023/09/05 13:50:49;;;;;;;3.85;3.35;;;24.70;15.10;;;;;;4974778;28;20232;-94
2023/09/05 13:53:18;;;;;;;3.72;3.20;;;24.70;15.70;;;;;;4976816;28;20291;-94
2023/09/05 13:56:04;;;;;;;3.63;3.17;;;24.70;14.00;;;;;;4967374;28;20441;-94
2023/09/05 14:01:38;;;;;;;4.57;3.33;;;24.60;14.90;;;;;;4943991;28;20736;-94
2023/09/05 14:04:06;;;;;;;3.83;3.40;;;24.50;14.60;;;;;;4973484;28;20677;-93
2023/09/05 14:11:51;;;;;;;5.20;4.15;;;24.40;14.90;;;;;;5450159;23;20222;-93
2023/09/05 14:20:03;;;;;;;3.78;3.40;;;24.40;16.20;;;;;;5005377;28;20188;-94
2023/09/05 14:22:30;;;;;;;5.97;3.83;;;24.40;16.80;;;;;;5003118;28;20212;-93
2023/09/05 14:27:33;;;;;;;3.53;3.08;;;24.40;15.50;;;;;;5287604;23;20253;-95
2023/09/05 14:35:24;;;;;;;4.03;3.30;;;24.40;16.50;;;;;;5094016;23;20240;-94
2023/09/05 14:40:46;;;;;;;6.93;3.50;;;24.30;16.00;;;;;;5486781;23;20236;-93
2023/09/05 14:43:15;;;;;;;4.75;4.25;;;24.30;15.90;;;;;;4992284;28;20761;-95
2023/09/05 14:58:39;;;;;;;8.00;3.30;;;24.10;15.10;;;;;;5144528;23;20225;-94
2023/09/05 15:14:15;;;;;;;10.13;4.07;;;23.80;16.20;;;;;;5897967;23;20214;31
2023/09/05 15:19:26;;;;;;;4.50;3.60;;;23.70;16.70;;;;;;4968739;28;20197;-93
2023/09/05 15:24:37;;;;;;;4.05;3.10;;;23.50;16.30;;;;;;5352739;23;20272;-94
2023/09/05 15:37:28;;;;;;;6.25;3.67;;;23.40;15.60;;;;;;5022591;23;20237;-92
2023/09/05 15:39:55;;;;;;;4.15;3.35;;;23.40;16.50;;;;;;4977104;28;20209;-95
2023/09/05 15:42:22;;;;;;;4.32;3.08;;;23.30;16.70;;;;;;5098212;23;20221;-91
2023/09/05 15:44:50;;;;;;;3.50;2.83;;;23.40;16.10;;;;;;4989360;28;20197;-92
2023/09/05 15:47:17;;;;;;;3.40;3.08;;;23.40;16.50;;;;;;4994773;28;20283;-92
2023/09/05 15:49:44;;;;;;;6.55;3.75;;;23.40;15.50;;;;;;4982642;28;20235;-90
2023/09/05 15:52:18;;;;;;;4.60;3.13;;;23.30;15.80;;;;;;4978428;28;20223;-93
2023/09/05 15:54:46;;;;;;;4.82;3.22;;;23.20;16.20;;;;;;4986465;28;20196;-92
2023/09/05 16:07:36;;;;;;;4.78;3.97;;;23.10;16.40;;;;;;5993346;23;20192;-93
2023/09/05 16:10:03;;;;;;;7.90;4.35;;;23.10;17.10;;;;;;5461991;23;20211;-92
2023/09/05 19:11:12;;;;;;;9.85;5.85;;;18.00;54.20;;;;;;5177378;23;20243;-95
2023/09/05 19:13:42;;;;;;;8.48;6.00;;;17.90;55.10;;;;;;4972218;28;20241;-92
2023/09/05 19:16:14;;;;;;;8.60;5.60;;;17.90;55.60;;;;;;4975536;28;20284;-91
2023/09/05 19:18:45;;;;;;;6.53;5.28;;;17.70;57.20;;;;;;4979821;23;20244;-92
2023/09/05 19:21:13;;;;;;;6.43;5.00;;;17.70;58.50;;;;;;4963073;28;20602;-94
2023/09/05 19:23:41;;;;;;;8.63;6.07;;;17.60;58.60;;;;;;4970327;28;20215;-93
2023/09/05 19:26:10;;;;;;;8.73;5.95;;;17.50;61.00;;;;;;4965836;28;20208;-92
2023/09/05 19:28:37;;;;;;;7.85;5.50;;;17.40;63.80;;;;;;4972776;28;20221;-92
2023/09/05 19:31:04;;;;;;;6.80;5.40;;;17.40;65.30;;;;;;4968536;28;20208;-92
2023/09/05 19:33:33;;;;;;;10.48;5.53;;;17.30;66.70;;;;;;4951311;28;20212;-92
2023/09/05 19:36:01;;;;;;;7.40;5.15;;;17.30;68.20;;;;;;4963203;28;20209;-92
2023/09/05 19:38:28;;;;;;;6.38;5.10;;;17.30;69.40;;;;;;4969465;28;20802;-92
2023/09/05 19:40:56;;;;;;;6.65;4.95;;;17.20;70.40;;;;;;4970284;28;20215;-92
2023/09/05 19:43:23;;;;;;;10.02;7.15;;;17.10;71.50;;;;;;4972105;28;20904;-92
2023/09/05 19:45:51;;;;;;;8.85;5.85;;;17.10;72.40;;;;;;4972536;28;20212;-92
2023/09/05 19:48:18;;;;;;;6.43;5.22;;;17.00;74.10;;;;;;4969358;28;20229;-92
2023/09/05 19:50:45;;;;;;;6.90;5.53;;;17.00;74.60;;;;;;4966012;28;20280;-92
2023/09/05 19:53:12;;;;;;;11.38;5.32;;;17.00;75.30;;;;;;4966845;28;20205;-93
2023/09/05 19:55:39;;;;;;;9.35;5.40;;;17.00;75.20;;;;;;4975127;28;20197;-93
2023/09/05 19:58:07;;;;;;;6.47;4.78;;;17.00;75.40;;;;;;4957106;28;20208;-93
2023/09/05 20:03:18;;;;;;;8.73;5.25;;;17.00;75.80;;;;;;4963714;28;20221;-95
2023/09/05 20:05:45;;;;;;;9.18;4.70;;;17.00;75.80;;;;;;4973382;28;20224;-94
2023/09/05 20:08:14;;;;;;;7.45;5.30;;;17.00;75.80;;;;;;4981963;28;20224;-94
2023/09/05 20:19:28;;;;;;;7.13;4.63;;;17.00;76.90;;;;;;4969359;28;20251;-95
2023/09/05 20:21:56;;;;;;;5.47;4.55;;;17.00;77.40;;;;;;4984299;28;20207;-95
2023/09/05 20:24:23;;;;;;;6.10;4.90;;;17.00;76.30;;;;;;4973750;28;20225;-96
2023/09/05 20:26:51;;;;;;;7.38;5.00;;;17.00;76.30;;;;;;5037335;23;20249;-95
2023/09/05 20:29:19;;;;;;;6.15;4.85;;;17.10;76.10;;;;;;4962269;28;20211;-94
2023/09/05 20:32:08;;;;;;;5.47;4.68;;;17.10;75.80;;;;;;4949799;28;20204;-95
2023/09/05 20:34:54;;;;;;;7.40;5.45;;;17.10;76.40;;;;;;4950754;29;20220;-95
2023/09/05 20:37:21;;;;;;;7.20;5.38;;;17.10;76.90;;;;;;4966303;28;20232;-94
2023/09/05 20:39:51;;;;;;;6.60;4.93;;;17.20;77.90;;;;;;4968663;28;20209;-95
2023/09/05 20:48:05;;;;;;;8.02;5.90;;;16.60;82.20;;;;;;4969654;28;20232;-95
2023/09/05 20:50:53;;;;;;;10.80;6.53;;;16.40;84.90;;;;;;4960364;28;20670;-94
2023/09/05 20:53:20;;;;;;;8.23;5.97;;;16.40;86.00;;;;;;4962414;28;20273;-94
2023/09/05 20:55:47;;;;;;;7.60;5.65;;;16.40;85.80;;;;;;4958684;28;20655;-93
2023/09/05 20:58:16;;;;;;;7.93;6.00;;;16.40;87.00;;;;;;4959771;28;20198;-94
2023/09/05 21:03:26;;;;;;;6.72;5.68;;;16.10;89.90;;;;;;4962597;28;20208;-94
2023/09/05 21:05:53;;;;;;;8.88;5.50;;;15.90;90.20;;;;;;4967228;28;20244;-95
2023/09/05 21:11:02;;;;;;;7.90;5.55;;;15.70;91.00;;;;;;4947449;29;20202;-95
2023/09/05 21:13:29;;;;;;;8.57;6.13;;;15.70;91.40;;;;;;4967167;28;20204;-95
2023/09/05 21:18:39;;;;;;;6.82;5.63;;;15.50;91.60;;;;;;4904625;28;20207;-95
2023/09/05 21:21:08;;;;;;;10.70;5.85;;;15.50;91.80;;;;;;4975208;28;20208;-95
2023/09/05 21:23:35;;;;;;;7.57;6.25;;;15.50;92.40;;;;;;4969100;28;20209;-96
2023/09/05 21:26:03;;;;;;;7.28;5.47;;;15.40;92.40;;;;;;4961529;28;20202;-95
2023/09/05 21:33:54;;;;;;;8.13;5.32;;;15.30;93.20;;;;;;4939536;28;20205;-95
2023/09/05 21:36:22;;;;;;;8.27;5.22;;;15.30;93.40;;;;;;4969026;28;20197;-95
2023/09/05 21:38:49;;;;;;;10.43;5.45;;;15.30;93.20;;;;;;4970113;28;20213;-96
2023/09/05 21:41:20;;;;;;;6.45;5.28;;;15.30;93.10;;;;;;4971367;28;20236;-95
2023/09/05 21:43:48;;;;;;;7.95;5.88;;;15.30;93.30;;;;;;4966256;28;20689;-94
2023/09/05 21:46:19;;;;;;;8.77;5.45;;;15.30;93.50;;;;;;4966717;28;20209;-94
2023/09/05 21:49:05;;;;;;;6.32;5.28;;;15.30;93.70;;;;;;4950907;28;20229;-95
2023/09/05 21:51:34;;;;;;;7.28;5.60;;;15.20;93.80;;;;;;4968264;28;20228;-95
2023/09/05 21:54:01;;;;;;;8.27;6.10;;;15.10;94.30;;;;;;4962082;28;20506;-95
2023/09/05 21:56:48;;;;;;;8.18;5.40;;;15.10;94.20;;;;;;4934205;29;20250;-95
2023/09/05 21:59:23;;;;;;;9.32;5.45;;;15.00;94.60;;;;;;4962447;28;20202;-94
2023/09/05 22:04:38;;;;;;;8.60;5.70;;;15.00;94.50;;;;;;4967373;28;20283;-95
2023/09/05 22:09:46;;;;;;;6.70;5.15;;;14.90;94.80;;;;;;4933629;28;20230;-95
2023/09/05 22:12:13;;;;;;;9.07;5.72;;;14.80;95.00;;;;;;4979365;28;20189;-95
2023/09/05 22:14:42;;;;;;;5.72;5.13;;;14.80;95.40;;;;;;4964234;29;20197;-95
2023/09/05 22:19:52;;;;;;;5.80;5.20;;;14.80;95.60;;;;;;4955709;28;20214;-94
2023/09/05 22:22:19;;;;;;;6.88;5.70;;;14.80;95.70;;;;;;4975088;28;20200;-94
2023/09/05 22:24:47;;;;;;;8.30;5.78;;;14.80;95.60;;;;;;4963461;28;20205;-95
2023/09/05 22:30:13;;;;;;;8.18;6.35;;;14.80;96.00;;;;;;4958293;28;20201;-94
2023/09/05 22:35:25;;;;;;;7.40;5.68;;;14.70;96.30;;;;;;4942644;28;20213;-95
2023/09/05 22:37:54;;;;;;;8.38;5.70;;;14.60;96.40;;;;;;4965008;28;20208;-95
2023/09/05 22:40:21;;;;;;;8.10;5.68;;;14.60;96.60;;;;;;4959643;28;20200;-95
2023/09/05 22:42:48;;;;;;;7.72;5.82;;;14.50;96.80;;;;;;4963954;28;20216;-94
2023/09/05 22:45:36;;;;;;;7.97;5.60;;;14.70;96.80;;;;;;4956765;28;20508;-95
2023/09/05 22:51:28;;;;;;;6.47;5.30;;;14.70;96.70;;;;;;4964233;29;20236;-95
2023/09/05 22:53:55;;;;;;;8.48;5.85;;;14.70;96.80;;;;;;4963136;29;20197;-95
2023/09/05 22:56:21;;;;;;;5.97;5.35;;;14.70;96.70;;;;;;4952225;28;20200;-95
2023/09/05 23:06:55;;;;;;;7.57;5.07;;;14.60;96.60;;;;;;4938032;28;20240;-96
2023/09/05 23:09:22;;;;;;;6.47;4.85;;;14.60;96.80;;;;;;4962443;28;20236;-94
2023/09/05 23:11:49;;;;;;;7.70;5.10;;;14.60;96.50;;;;;;4968737;28;20331;-95
2023/09/05 23:14:17;;;;;;;5.88;5.07;;;14.60;96.40;;;;;;4966980;28;20208;-95
2023/09/05 23:16:44;;;;;;;6.97;5.45;;;14.60;96.40;;;;;;4946704;29;20297;-94
2023/09/05 23:19:11;;;;;;;6.93;5.05;;;14.60;96.40;;;;;;4935969;29;20197;-95
2023/09/05 23:24:21;;;;;;;8.93;5.10;;;14.50;96.60;;;;;;4930463;28;20197;-95
2023/09/05 23:26:48;;;;;;;8.27;5.38;;;14.40;96.80;;;;;;4959015;28;20213;-95
2023/09/05 23:29:17;;;;;;;6.32;5.22;;;14.40;96.80;;;;;;4943069;29;20224;-95
2023/09/05 23:31:54;;;;;;;5.53;4.97;;;14.40;96.80;;;;;;4962944;28;20219;-95
2023/09/05 23:34:21;;;;;;;6.88;5.20;;;14.30;96.70;;;;;;4967524;28;20205;-96
2023/09/05 23:36:52;;;;;;;6.13;5.25;;;14.30;96.70;;;;;;4965344;28;20215;-95
2023/09/05 23:39:19;;;;;;;6.50;4.70;;;14.40;96.30;;;;;;4975744;28;20201;-95